createdAt,value
2019-05-11T00:02:43.829Z,14.14
2019-05-11T00:07:43.874Z,14.18
2019-05-11T00:12:44.069Z,14.26
2019-05-11T00:17:44.047Z,14.22
2019-05-11T00:22:44.277Z,14.29
2019-05-11T00:27:44.297Z,14.25
2019-05-11T00:32:44.342Z,14.28
2019-05-11T00:37:50.675Z,14.11
2019-05-11T00:42:51.068Z,14.0
2019-05-11T00:47:50.808Z,14.07
2019-05-11T00:52:50.966Z,14.15
2019-05-11T00:57:51.657Z,14.28
2019-05-11T01:02:51.766Z,14.33
2019-05-11T01:07:51.733Z,14.1
2019-05-11T01:12:51.847Z,14.05
2019-05-11T01:17:51.883Z,14.13
2019-05-11T01:22:51.923Z,14.04
2019-05-11T01:27:52.093Z,14.01
2019-05-11T01:32:58.345Z,13.78
2019-05-11T01:37:58.471Z,13.69
2019-05-11T01:42:59.504Z,13.77
2019-05-11T01:47:59.555Z,13.69
2019-05-11T01:52:59.591Z,13.87
2019-05-11T01:57:59.709Z,14.0
2019-05-11T02:02:59.732Z,13.86
2019-05-11T02:07:59.822Z,13.8
2019-05-11T02:12:59.925Z,13.62
2019-05-11T02:17:59.947Z,13.48
2019-05-11T02:22:59.965Z,13.43
2019-05-11T02:28:06.341Z,13.41
2019-05-11T02:33:06.474Z,13.58
2019-05-11T02:38:06.438Z,13.68
2019-05-11T02:43:06.486Z,13.74
2019-05-11T02:48:07.394Z,13.87
2019-05-11T02:53:07.428Z,13.96
2019-05-11T02:58:07.473Z,13.84
2019-05-11T03:03:07.509Z,14.01
2019-05-11T03:08:07.631Z,14.07
2019-05-11T03:13:07.663Z,14.03
2019-05-11T03:18:07.790Z,13.93
2019-05-11T03:23:14.126Z,14.04
2019-05-11T03:28:14.098Z,14.12
2019-05-11T03:33:14.138Z,14.18
2019-05-11T03:38:14.164Z,14.16
2019-05-11T03:43:14.293Z,14.18
2019-05-11T03:48:14.335Z,14.2
2019-05-11T03:53:14.450Z,14.31
2019-05-11T03:58:14.593Z,14.29
2019-05-11T04:03:14.709Z,14.4
2019-05-11T04:08:14.710Z,14.3
2019-05-11T04:13:14.747Z,14.35
2019-05-11T04:18:21.077Z,14.4
2019-05-11T04:23:21.114Z,14.47
2019-05-11T04:28:21.377Z,14.58
2019-05-11T04:33:21.263Z,14.68
2019-05-11T04:38:21.452Z,14.65
2019-05-11T04:43:21.464Z,14.74
2019-05-11T04:48:22.923Z,14.83
2019-05-11T04:53:22.986Z,14.72
2019-05-11T04:58:23.054Z,14.78
2019-05-11T05:03:38.372Z,14.88
2019-05-11T05:08:26.357Z,15.0
2019-05-11T05:13:31.604Z,14.92
2019-05-11T05:18:31.638Z,15.06
2019-05-11T05:23:31.771Z,15.16
2019-05-11T05:28:31.751Z,15.18
2019-05-11T05:33:31.826Z,15.34
2019-05-11T05:38:31.866Z,15.3
2019-05-11T05:43:31.979Z,15.35
2019-05-11T05:48:32.019Z,15.46
2019-05-11T05:53:32.131Z,15.39
2019-05-11T05:58:32.237Z,15.41
2019-05-11T06:03:32.231Z,15.42
2019-05-11T06:08:36.546Z,15.45
2019-05-11T06:13:44.939Z,15.7
2019-05-11T06:18:36.668Z,15.7
2019-05-11T06:23:36.874Z,15.57
2019-05-11T06:28:37.018Z,15.4
2019-05-11T06:33:36.994Z,15.31
2019-05-11T06:38:37.030Z,15.6
2019-05-11T06:43:37.145Z,15.75
2019-05-11T06:48:37.186Z,15.8
2019-05-11T06:53:37.366Z,15.81
2019-05-11T06:58:37.302Z,15.95
2019-05-11T07:03:43.870Z,15.99
2019-05-11T07:08:43.651Z,15.95
2019-05-11T07:13:43.772Z,16.03
2019-05-11T07:18:43.895Z,15.93
2019-05-11T07:23:44.462Z,15.87
2019-05-11T07:28:44.646Z,15.72
2019-05-11T07:33:44.672Z,15.44
2019-05-11T07:38:44.709Z,15.56
2019-05-11T07:43:44.766Z,15.84
2019-05-11T07:48:44.888Z,16.1
2019-05-11T07:53:44.927Z,16.28
2019-05-11T07:58:51.921Z,16.46
2019-05-11T08:03:52.665Z,16.41
2019-05-11T08:08:52.703Z,16.44
2019-05-11T08:13:52.822Z,16.51
2019-05-11T08:18:52.848Z,16.45
2019-05-11T08:23:52.983Z,16.5
2019-05-11T08:28:52.964Z,16.73
2019-05-11T08:33:53.070Z,16.83
2019-05-11T08:38:53.103Z,16.84
2019-05-11T08:43:53.216Z,16.92
2019-05-11T08:48:53.327Z,16.87
2019-05-11T08:53:59.763Z,16.9
2019-05-11T08:58:59.835Z,16.96
2019-05-11T09:03:59.950Z,16.66
2019-05-11T09:08:59.975Z,16.29
2019-05-11T09:14:00.016Z,16.02
2019-05-11T09:19:00.108Z,16.08
2019-05-11T09:24:00.222Z,16.59
2019-05-11T09:29:00.238Z,17.17
2019-05-11T09:34:00.478Z,17.32
2019-05-11T09:39:00.841Z,17.25
2019-05-11T09:44:01.025Z,17.79
2019-05-11T09:49:08.104Z,18.13
2019-05-11T09:54:07.941Z,18.19
2019-05-11T09:59:08.746Z,18.74
2019-05-11T10:04:08.937Z,18.9
2019-05-11T10:09:52.816Z,18.9
2019-05-11T10:15:02.929Z,18.84
2019-05-11T10:20:02.967Z,19.0
2019-05-11T10:25:03.179Z,18.55
2019-05-11T10:30:03.118Z,18.36
2019-05-11T10:35:03.185Z,18.5
2019-05-11T10:40:03.302Z,18.49
2019-05-11T10:45:09.659Z,18.78
2019-05-11T10:50:10.306Z,18.81
2019-05-11T10:55:10.595Z,18.82
2019-05-11T11:00:11.577Z,18.76
2019-05-11T11:06:03.769Z,18.32
2019-05-11T11:11:04.043Z,18.55
2019-05-11T11:16:04.175Z,18.51
2019-05-11T11:21:04.495Z,18.59
2019-05-11T11:26:05.145Z,18.42
2019-05-11T11:31:07.230Z,18.75
2019-05-11T11:36:05.347Z,18.81
2019-05-11T11:41:11.697Z,18.98
2019-05-11T11:46:12.614Z,19.12
2019-05-11T11:51:12.591Z,19.21
2019-05-11T11:56:12.853Z,19.12
2019-05-11T12:01:12.806Z,18.79
2019-05-11T12:06:12.874Z,18.84
2019-05-11T12:11:12.911Z,18.87
2019-05-11T12:16:13.021Z,18.86
2019-05-11T12:21:13.061Z,19.17
2019-05-11T12:26:13.104Z,19.4
2019-05-11T12:31:13.218Z,19.77
2019-05-11T12:36:19.530Z,19.46
2019-05-11T12:41:19.661Z,19.57
2019-05-11T12:46:19.698Z,19.77
2019-05-11T12:51:19.816Z,20.29
2019-05-11T12:56:20.002Z,20.14
2019-05-11T13:01:20.000Z,20.26
2019-05-11T13:06:20.036Z,20.01
2019-05-11T13:11:20.072Z,19.7
2019-05-11T13:16:20.226Z,19.41
2019-05-11T13:21:20.260Z,18.72
2019-05-11T13:26:20.307Z,17.85
2019-05-11T13:31:27.788Z,17.18
2019-05-11T13:36:28.612Z,17.33
2019-05-11T13:41:28.016Z,17.62
2019-05-11T13:46:28.269Z,17.68
2019-05-11T13:51:28.507Z,17.49
2019-05-11T13:56:28.435Z,17.67
2019-05-11T14:01:27.922Z,18.05
2019-05-11T14:06:28.847Z,18.64
2019-05-11T14:11:28.589Z,18.53
2019-05-11T14:16:27.930Z,18.18
2019-05-11T14:21:30.397Z,17.37
2019-05-11T14:26:38.538Z,16.2
2019-05-11T14:31:38.578Z,15.46
2019-05-11T14:36:38.705Z,15.71
2019-05-11T14:41:38.278Z,16.0
2019-05-11T14:46:38.386Z,15.69
2019-05-11T14:51:39.033Z,15.17
2019-05-11T14:56:38.140Z,15.04
2019-05-11T15:01:38.356Z,15.26
2019-05-11T15:06:38.573Z,15.43
2019-05-11T15:11:38.783Z,15.47
2019-05-11T15:16:38.465Z,15.4
2019-05-11T15:21:44.317Z,15.34
2019-05-11T15:26:44.352Z,15.49
2019-05-11T15:31:44.468Z,15.64
2019-05-11T15:36:44.502Z,15.56
2019-05-11T15:41:44.545Z,15.6
2019-05-11T15:46:44.658Z,15.92
2019-05-11T15:51:44.802Z,15.98
2019-05-11T15:56:44.817Z,15.87
2019-05-11T16:01:44.855Z,15.75
2019-05-11T16:06:44.971Z,15.73
2019-05-11T16:11:45.005Z,15.37
2019-05-11T16:16:52.263Z,15.09
2019-05-11T16:21:53.443Z,13.99
2019-05-11T16:26:58.062Z,12.8
2019-05-11T16:31:57.815Z,12.57
2019-05-11T16:36:56.280Z,13.02
2019-05-11T16:41:57.817Z,13.47
2019-05-11T16:46:58.637Z,13.67
2019-05-11T16:51:56.476Z,13.7
2019-05-11T16:56:57.895Z,13.52
2019-05-11T17:01:58.590Z,13.62
2019-05-11T17:06:57.838Z,13.7
2019-05-11T17:12:05.025Z,13.6
2019-05-11T17:17:05.067Z,13.35
2019-05-11T17:22:05.180Z,13.32
2019-05-11T17:27:05.209Z,13.23
2019-05-11T17:32:05.350Z,12.94
2019-05-11T17:37:05.383Z,13.02
2019-05-11T17:42:05.589Z,12.77
2019-05-11T17:47:05.523Z,12.34
2019-05-11T17:52:05.575Z,12.29
2019-05-11T17:57:05.712Z,12.03
2019-05-11T18:02:05.750Z,11.99
2019-05-11T18:07:25.002Z,11.95
2019-05-11T18:12:14.338Z,11.71
2019-05-11T18:17:14.374Z,11.65
2019-05-11T18:22:14.549Z,11.65
2019-05-11T18:27:14.584Z,11.84
2019-05-11T18:32:14.756Z,11.82
2019-05-11T18:37:14.755Z,11.59
2019-05-11T18:42:14.935Z,11.51
2019-05-11T18:47:14.938Z,11.76
2019-05-11T18:52:15.070Z,11.89
2019-05-11T18:57:15.097Z,11.72
2019-05-11T19:02:21.462Z,11.69
2019-05-11T19:07:21.573Z,11.5
2019-05-11T19:12:21.595Z,11.58
2019-05-11T19:17:21.706Z,11.54
2019-05-11T19:22:21.767Z,11.44
2019-05-11T19:27:21.794Z,11.33
2019-05-11T19:32:23.603Z,11.2
2019-05-11T19:37:23.802Z,11.13
2019-05-11T19:42:23.678Z,11.22
2019-05-11T19:47:23.715Z,10.97
2019-05-11T19:52:23.858Z,10.97
2019-05-11T19:57:30.336Z,10.89
2019-05-11T20:02:30.384Z,11.01
2019-05-11T20:07:32.081Z,11.15
2019-05-11T20:12:30.778Z,11.05
2019-05-11T20:17:31.982Z,11.05
2019-05-11T20:22:31.990Z,10.97
2019-05-11T20:27:31.984Z,10.84
2019-05-11T20:32:32.186Z,10.58
2019-05-11T20:37:32.204Z,10.81
2019-05-11T20:42:32.517Z,10.67
2019-05-11T20:47:32.609Z,10.57
2019-05-11T20:52:39.139Z,10.45
2019-05-11T20:57:39.628Z,10.57
2019-05-11T21:02:39.186Z,10.62
2019-05-11T21:07:39.222Z,10.52
2019-05-11T21:12:39.257Z,10.58
2019-05-11T21:17:39.506Z,10.49
2019-05-11T21:22:40.540Z,10.52
2019-05-11T21:27:39.625Z,10.65
2019-05-11T21:32:39.737Z,10.65
2019-05-11T21:37:39.777Z,10.62
2019-05-11T21:42:40.193Z,10.51
2019-05-11T21:47:52.494Z,10.53
2019-05-11T21:52:54.216Z,10.49
2019-05-11T21:57:52.634Z,10.39
2019-05-11T22:02:53.019Z,10.35
2019-05-11T22:07:52.767Z,10.36
2019-05-11T22:12:52.880Z,10.39
2019-05-11T22:17:53.984Z,10.21
2019-05-11T22:22:54.021Z,10.25
2019-05-11T22:27:54.056Z,10.25
2019-05-11T22:32:54.132Z,10.4
2019-05-11T22:37:54.246Z,10.31
2019-05-11T22:43:02.550Z,10.38
2019-05-11T22:48:02.586Z,10.16
2019-05-11T22:53:02.701Z,10.43
2019-05-11T22:58:02.737Z,10.37
2019-05-11T23:03:02.814Z,10.24
2019-05-11T23:08:02.915Z,10.32
2019-05-11T23:13:02.954Z,10.26
2019-05-11T23:18:03.068Z,10.15
2019-05-11T23:23:03.107Z,10.05
2019-05-11T23:28:03.244Z,10.07
2019-05-11T23:33:03.275Z,10.07
2019-05-11T23:38:09.954Z,10.16
2019-05-11T23:43:09.685Z,10.03
2019-05-11T23:48:09.963Z,10.07
2019-05-11T23:53:10.494Z,10.14
2019-05-11T23:58:10.326Z,10.17
